Time;durP1;ratioP1;P1;durP2;ratioP2;P2;SDS_P1;SDS_P2;PMS_P1;PMS_P2;Temp;Humidity;BMP_temperature;BMP_pressure;BME280_temperature;BME280_humidity;BME280_pressure;Samples;Min_cycle;Max_cycle;Signal;HPM_P1;HPM_P2
2022/05/24 00:02:04;;;;;;;27.75;20.20;;;;;;;15.17;81.11;100056.78;5033393;28;20030;-62
2022/05/24 00:04:30;;;;;;;26.73;19.63;;;;;;;15.13;81.03;100061.28;5033332;28;20032;-62
2022/05/24 00:06:56;;;;;;;24.80;19.83;;;;;;;15.04;81.28;100050.84;5033275;28;20029;-63
2022/05/24 00:09:21;;;;;;;20.92;16.75;;;;;;;15.01;81.03;100040.25;5033267;28;20447;-62
2022/05/24 00:11:46;;;;;;;20.40;15.52;;;;;;;14.98;80.29;100042.97;5033251;28;20030;-62
2022/05/24 00:14:12;;;;;;;18.77;15.32;;;;;;;14.95;80.62;100041.25;5049950;28;20036;-63
2022/05/24 00:16:37;;;;;;;21.98;14.90;;;;;;;14.98;80.11;100035.84;5058037;28;20014;-63
2022/05/24 00:19:04;;;;;;;21.52;14.15;;;;;;;14.93;80.01;100019.13;5057081;28;20033;-63
2022/05/24 00:21:29;;;;;;;19.77;13.75;;;;;;;14.95;80.06;100032.41;5038524;28;20052;-63
2022/05/24 00:23:55;;;;;;;19.05;13.57;;;;;;;14.94;79.58;100036.81;5033447;28;20459;-63
2022/05/24 00:26:29;;;;;;;16.95;12.15;;;;;;;14.87;79.88;100044.97;5033089;28;20029;-63
2022/05/24 00:28:54;;;;;;;17.90;12.82;;;;;;;14.81;79.72;100056.59;5033085;28;20035;-63
2022/05/24 00:31:20;;;;;;;18.25;11.82;;;;;;;14.78;79.93;100062.88;5033152;28;20013;-63
2022/05/24 00:33:45;;;;;;;20.33;12.57;;;;;;;14.76;80.28;100054.03;5032866;28;20036;-63
2022/05/24 00:36:11;;;;;;;16.10;12.02;;;;;;;14.74;80.17;100047.88;5032960;28;20071;-63
2022/05/24 00:38:37;;;;;;;16.10;12.07;;;;;;;14.70;79.78;100043.50;5032906;28;20018;-63
2022/05/24 00:41:26;;;;;;;17.60;11.30;;;;;;;14.73;80.16;100038.16;5032822;28;20129;-63
2022/05/24 00:44:13;;;;;;;19.77;12.48;;;;;;;14.61;80.61;100033.06;5032931;28;20037;-63
2022/05/24 00:46:51;;;;;;;17.77;11.80;;;;;;;14.55;80.42;100043.78;5032694;28;20025;-61
2022/05/24 00:49:34;;;;;;;17.77;11.88;;;;;;;14.49;80.44;100039.47;5032764;28;20026;-62
2022/05/24 00:52:09;;;;;;;21.23;10.90;;;;;;;14.46;80.16;100041.28;5032858;28;20431;-63
2022/05/24 00:54:35;;;;;;;14.45;9.73;;;;;;;14.40;79.92;100044.91;5032902;28;20026;-63
2022/05/24 00:57:26;;;;;;;19.58;9.85;;;;;;;14.40;79.26;100044.06;5036494;28;20042;-62
2022/05/24 01:00:01;;;;;;;17.02;9.80;;;;;;;14.35;78.87;100045.91;5036696;28;20041;-62
2022/05/24 01:02:26;;;;;;;15.07;9.40;;;;;;;14.37;78.68;100044.09;5018837;28;20479;-63
2022/05/24 01:04:52;;;;;;;16.08;9.70;;;;;;;14.32;78.82;100040.66;5036546;28;20035;-63
2022/05/24 01:07:17;;;;;;;15.57;9.38;;;;;;;14.27;78.95;100043.38;5036046;28;20026;-63
2022/05/24 01:09:50;;;;;;;14.52;9.45;;;;;;;14.14;79.76;100039.19;5036352;28;20551;-66
2022/05/24 01:12:25;;;;;;;17.52;9.68;;;;;;;14.08;79.75;100037.50;5036351;28;20140;-63
2022/05/24 01:14:53;;;;;;;15.93;10.65;;;;;;;13.92;80.42;100034.22;5036329;28;20040;-63
2022/05/24 01:17:18;;;;;;;13.60;9.45;;;;;;;13.90;80.13;100029.81;5018579;28;20083;-62
2022/05/24 01:19:46;;;;;;;17.73;9.40;;;;;;;13.95;80.47;100034.16;5036093;28;20026;-63
2022/05/24 01:22:33;;;;;;;19.05;8.57;;;;;;;13.90;80.13;100043.09;5036276;28;20348;-63
2022/05/24 01:25:26;;;;;;;16.23;8.50;;;;;;;13.88;79.66;100029.00;5036171;28;20057;-63
2022/05/24 01:27:52;;;;;;;16.48;8.57;;;;;;;13.81;79.94;100029.97;5036214;28;20044;-63
2022/05/24 01:30:17;;;;;;;16.98;8.38;;;;;;;13.77;80.15;100042.41;5035930;28;20029;-63
2022/05/24 01:38:18;;;;;;;13.38;7.30;;;;;;;13.60;79.94;100047.09;5036063;28;20033;-63
2022/05/24 01:40:46;;;;;;;;;;;;;;;13.65;79.16;100047.91;5036222;28;20029;-62
2022/05/24 01:43:11;;;;;;;15.02;7.32;;;;;;;13.60;79.90;100053.28;5035989;28;20012;-62
2022/05/24 01:45:43;;;;;;;17.25;7.07;;;;;;;13.55;79.93;100055.13;5035790;28;20057;-63
2022/05/24 01:48:16;;;;;;;14.52;6.70;;;;;;;13.60;79.78;100055.06;5035856;28;20068;-63
2022/05/24 01:50:44;;;;;;;16.35;6.55;;;;;;;13.57;79.53;100048.00;5035658;28;20040;-63
2022/05/24 01:53:15;;;;;;;14.10;6.90;;;;;;;13.58;79.11;100057.75;5035688;28;20028;-63
2022/05/24 01:55:45;;;;;;;14.07;6.03;;;;;;;13.56;79.11;100054.22;5033365;28;20103;-63
2022/05/24 01:58:13;;;;;;;13.80;5.80;;;;;;;13.48;79.09;100038.41;5015369;28;20026;-63
2022/05/24 02:00:44;;;;;;;16.42;5.78;;;;;;;13.48;78.63;100048.16;5015570;28;20049;-63
2022/05/24 02:03:10;;;;;;;15.82;5.30;;;;;;;13.51;78.52;100037.50;5015752;28;20030;-63
2022/05/24 02:05:38;;;;;;;10.73;5.03;;;;;;;13.46;78.63;100040.22;5015589;28;20356;-63
2022/05/24 02:08:09;;;;;;;12.27;5.30;;;;;;;13.49;78.41;100036.66;5014826;28;20026;-63
2022/05/24 02:10:53;;;;;;;13.13;5.18;;;;;;;13.45;78.46;100035.81;5015780;28;20026;-62
2022/05/24 02:13:26;;;;;;;13.23;5.45;;;;;;;13.35;78.81;100044.78;5015463;28;20033;-63
2022/05/24 02:15:54;;;;;;;13.70;4.80;;;;;;;13.35;78.35;100051.88;5015300;28;20045;-63
2022/05/24 02:18:22;;;;;;;12.88;4.70;;;;;;;13.33;78.44;100056.34;5015328;28;20085;-63
2022/05/24 02:20:48;;;;;;;12.00;4.47;;;;;;;13.30;78.61;100059.88;5015153;28;20031;-62
2022/05/24 02:23:16;;;;;;;11.38;4.57;;;;;;;13.23;78.37;100051.16;5015221;28;20037;-63
2022/05/24 02:25:51;;;;;;;12.70;4.50;;;;;;;13.14;79.01;100059.16;5015193;28;20050;-63
2022/05/24 02:28:20;;;;;;;11.07;4.28;;;;;;;13.12;78.99;100068.94;5015136;28;20467;-63
2022/05/24 02:30:50;;;;;;;10.00;4.13;;;;;;;13.13;79.04;100064.50;5015033;28;20037;-62
2022/05/24 02:33:16;;;;;;;9.32;3.90;;;;;;;13.17;78.61;100056.47;5014824;28;20038;-62
2022/05/24 02:35:41;;;;;;;10.00;3.97;;;;;;;13.18;78.64;100052.91;5015057;28;20037;-63
2022/05/24 02:38:07;;;;;;;7.20;3.80;;;;;;;13.16;78.02;100056.50;5014934;28;20101;-63
2022/05/24 02:43:17;;;;;;;12.73;3.78;;;;;;;13.13;77.69;100052.09;5015232;28;20045;-63
2022/05/24 02:45:42;;;;;;;8.25;3.42;;;;;;;13.11;77.73;100043.31;5014746;28;20026;-63
2022/05/24 02:48:09;;;;;;;7.95;3.20;;;;;;;13.07;78.11;100054.84;5014544;28;20494;-63
2022/05/24 02:50:34;;;;;;;9.10;3.50;;;;;;;13.10;78.01;100053.91;5014627;28;20037;-63
2022/05/24 02:52:59;;;;;;;9.52;3.65;;;;;;;13.11;77.82;100066.31;4997227;28;20069;-63
2022/05/24 02:55:25;;;;;;;9.55;3.40;;;;;;;13.11;78.05;100064.53;5014593;28;20029;-63
2022/05/24 02:57:50;;;;;;;11.48;3.38;;;;;;;13.12;78.01;100068.94;5034079;28;20088;-63
2022/05/24 03:00:19;;;;;;;7.78;3.28;;;;;;;13.15;77.86;100065.38;5034232;28;20025;-63
2022/05/24 03:02:45;;;;;;;7.57;3.20;;;;;;;13.14;77.81;100048.56;5034256;28;20036;-63
2022/05/24 03:05:12;;;;;;;8.68;3.20;;;;;;;13.10;77.65;100046.84;5034200;28;20021;-63
2022/05/24 03:10:23;;;;;;;9.32;3.30;;;;;;;13.07;77.50;100046.03;5034395;28;20073;-63
2022/05/24 03:15:33;;;;;;;8.93;3.20;;;;;;;13.01;77.89;100057.56;5033955;28;20160;-63
2022/05/24 03:17:59;;;;;;;9.52;3.30;;;;;;;12.93;78.16;100060.31;5033983;28;20029;-63
2022/05/24 03:20:25;;;;;;;12.63;3.40;;;;;;;12.97;78.11;100058.50;5033847;28;20032;-63
2022/05/24 03:22:50;;;;;;;7.78;3.30;;;;;;;12.97;78.03;100062.00;5033873;28;20029;-63
2022/05/24 03:25:15;;;;;;;12.43;3.58;;;;;;;12.95;78.29;100068.25;5033866;28;20017;-63
2022/05/24 03:27:41;;;;;;;10.30;3.70;;;;;;;12.95;78.56;100071.78;5033896;28;20056;-63
2022/05/24 03:30:07;;;;;;;12.15;3.40;;;;;;;12.95;78.85;100077.06;5033576;28;20371;-63
2022/05/24 03:32:33;;;;;;;8.18;3.58;;;;;;;12.93;79.13;100070.03;5033672;28;20029;-63
2022/05/24 03:35:03;;;;;;;9.45;3.88;;;;;;;12.92;78.87;100071.81;5033842;28;20486;-62
2022/05/24 03:37:29;;;;;;;9.88;3.40;;;;;;;13.00;78.95;100071.72;5033573;28;20371;-63
2022/05/24 03:39:54;;;;;;;8.63;3.22;;;;;;;12.99;78.93;100070.84;5033554;28;20037;-63
2022/05/24 03:42:19;;;;;;;9.40;3.70;;;;;;;12.96;78.89;100076.19;5034207;28;20048;-63
2022/05/24 03:44:45;;;;;;;12.85;3.97;;;;;;;12.96;79.02;100064.69;5034439;28;20064;-61
2022/05/24 03:47:10;;;;;;;10.80;3.78;;;;;;;12.94;78.89;100056.78;5033252;28;20053;-63
2022/05/24 03:49:35;;;;;;;10.43;3.72;;;;;;;12.99;78.80;100052.28;5032915;28;20096;-63
2022/05/24 03:52:01;;;;;;;11.27;4.30;;;;;;;13.06;78.44;100060.16;5033155;28;20021;-63
2022/05/24 03:54:27;;;;;;;9.55;4.70;;;;;;;13.03;78.60;100079.66;5034104;28;20025;-63
2022/05/24 03:59:36;;;;;;;10.65;4.90;;;;;;;12.99;78.42;100096.50;5033709;28;20120;-62
2022/05/24 04:02:02;;;;;;;11.15;5.22;;;;;;;12.98;78.52;100100.91;5035360;28;20049;-62
2022/05/24 04:04:28;;;;;;;11.23;4.75;;;;;;;12.98;78.77;100092.97;5033901;28;20383;-62
2022/05/24 04:06:53;;;;;;;11.85;5.15;;;;;;;13.02;77.89;100113.25;5033219;28;20033;-63
2022/05/24 04:09:18;;;;;;;11.30;4.95;;;;;;;12.98;78.35;100137.19;5032815;28;20065;-63
2022/05/24 04:11:44;;;;;;;10.38;4.63;;;;;;;12.94;78.88;100135.44;5032792;28;20037;-63
2022/05/24 04:14:09;;;;;;;17.20;4.90;;;;;;;12.89;78.93;100134.59;5032546;28;20018;-63
2022/05/24 04:16:34;;;;;;;8.32;4.20;;;;;;;12.92;79.13;100138.09;5032702;28;20116;-62
2022/05/24 04:19:00;;;;;;;11.93;4.32;;;;;;;12.94;79.03;100138.09;5033131;28;20108;-62
2022/05/24 04:21:25;;;;;;;12.35;3.95;;;;;;;12.94;78.77;100136.31;5032556;28;20033;-63
2022/05/24 04:23:51;;;;;;;15.10;4.60;;;;;;;12.95;78.68;100118.63;5032693;28;20025;-63
2022/05/24 04:26:17;;;;;;;9.93;3.92;;;;;;;12.98;78.61;100105.34;5032703;28;20025;-62
2022/05/24 04:28:42;;;;;;;9.63;3.90;;;;;;;13.01;78.39;100076.13;5032806;28;20092;-62
2022/05/24 04:31:07;;;;;;;11.57;3.78;;;;;;;12.98;78.28;100087.66;5034772;28;20025;-63
2022/05/24 04:33:33;;;;;;;11.23;3.70;;;;;;;12.96;78.14;100094.75;5036950;28;20096;-62
2022/05/24 04:35:58;;;;;;;7.47;3.35;;;;;;;12.95;78.44;100106.25;5036787;28;20407;-63
2022/05/24 04:38:24;;;;;;;12.05;3.60;;;;;;;12.91;78.36;100131.03;5036723;28;20525;-62
2022/05/24 04:43:33;;;;;;;9.70;3.60;;;;;;;12.86;78.88;100147.91;5036320;28;20092;-62
2022/05/24 04:45:58;;;;;;;9.85;3.45;;;;;;;12.87;78.90;100153.19;5036361;28;20029;-62
2022/05/24 04:48:24;;;;;;;10.25;3.63;;;;;;;12.79;79.32;100132.03;5036366;28;20033;-62
2022/05/24 04:50:54;;;;;;;8.75;3.22;;;;;;;12.79;79.18;100133.81;5036422;28;20113;-61
2022/05/24 04:53:20;;;;;;;7.43;3.40;;;;;;;12.76;79.22;100132.09;5036208;28;20029;-63
2022/05/24 04:55:47;;;;;;;7.30;3.22;;;;;;;12.80;79.43;100146.16;5036025;28;20039;-63
2022/05/24 04:58:12;;;;;;;9.32;3.28;;;;;;;12.85;78.84;100141.72;5035898;28;20030;-63
2022/05/24 05:00:39;;;;;;;7.70;2.90;;;;;;;12.86;78.68;100156.72;5036092;28;20025;-63
2022/05/24 05:03:13;;;;;;;8.82;3.13;;;;;;;12.86;78.92;100163.81;5036307;28;20028;-62
2022/05/24 05:05:39;;;;;;;8.48;3.00;;;;;;;12.89;78.85;100172.63;5036325;28;20025;-62
2022/05/24 05:08:05;;;;;;;8.52;2.85;;;;;;;12.85;78.88;100180.59;5035960;28;20554;-63
2022/05/24 05:10:33;;;;;;;6.95;2.92;;;;;;;12.88;78.76;100180.56;5036037;28;20112;-63
2022/05/24 05:12:58;;;;;;;11.68;3.50;;;;;;;12.84;78.81;100192.09;5035848;28;20092;-62
2022/05/24 05:15:24;;;;;;;15.10;3.70;;;;;;;12.87;78.97;100192.94;5035778;28;20434;-62
2022/05/24 05:17:50;;;;;;;14.15;3.13;;;;;;;12.87;79.17;100198.25;5035936;28;20036;-62
2022/05/24 05:20:16;;;;;;;7.70;3.00;;;;;;;12.82;78.80;100208.03;5035767;28;20056;-62
2022/05/24 05:22:41;;;;;;;9.15;2.88;;;;;;;12.78;78.68;100195.69;5035922;28;20462;-62
2022/05/24 05:25:08;;;;;;;12.63;3.20;;;;;;;12.73;78.78;100209.00;5035624;28;20028;-62
2022/05/24 05:27:33;;;;;;;11.00;3.20;;;;;;;12.79;78.88;100200.09;5035707;28;20095;-62
2022/05/24 05:32:45;;;;;;;10.88;3.00;;;;;;;12.85;78.38;100183.25;5036078;28;20561;-62
2022/05/24 05:35:10;;;;;;;7.93;3.30;;;;;;;12.84;78.39;100198.28;5035588;28;20454;-62
2022/05/24 05:37:36;;;;;;;10.85;3.45;;;;;;;12.84;78.48;100189.44;5035782;28;20030;-62
2022/05/24 05:40:04;;;;;;;10.15;3.40;;;;;;;12.81;78.01;100184.19;5035547;28;20033;-62
2022/05/24 05:42:30;;;;;;;10.32;3.47;;;;;;;12.81;78.84;100184.19;5034006;28;20040;-62
2022/05/24 05:44:55;;;;;;;9.27;3.10;;;;;;;12.77;77.87;100180.69;5035696;28;20033;-62
2022/05/24 05:47:21;;;;;;;11.00;3.05;;;;;;;12.80;77.87;100183.28;5035137;28;20021;-62
2022/05/24 05:49:46;;;;;;;8.95;2.92;;;;;;;12.82;78.66;100193.91;5035462;28;20025;-62
2022/05/24 05:52:12;;;;;;;8.15;2.80;;;;;;;12.82;78.83;100192.13;5035334;28;20033;-62
2022/05/24 05:54:38;;;;;;;9.63;2.95;;;;;;;12.83;77.94;100201.81;5035894;28;20025;-62
2022/05/24 05:57:06;;;;;;;10.63;2.92;;;;;;;12.86;78.04;100209.75;5018359;28;20046;-61
2022/05/24 05:59:32;;;;;;;11.70;3.30;;;;;;;12.87;77.45;100222.13;5036154;28;20514;-62
2022/05/24 06:01:58;;;;;;;8.82;3.08;;;;;;;12.83;77.38;100228.34;5035558;28;20033;-62
2022/05/24 06:04:25;;;;;;;11.65;2.88;;;;;;;12.82;77.96;100229.25;5035294;28;20024;-61
2022/05/24 06:06:52;;;;;;;10.95;2.90;;;;;;;12.76;78.19;100239.88;5035094;28;20091;-62
2022/05/24 06:09:17;;;;;;;10.20;2.88;;;;;;;12.82;77.45;100237.19;5034894;28;20033;-62
2022/05/24 06:11:44;;;;;;;11.38;2.95;;;;;;;12.83;77.45;100236.28;5034897;28;20096;-63
2022/05/24 06:14:10;;;;;;;11.63;3.50;;;;;;;12.88;77.72;100239.78;5035003;28;20037;-62
2022/05/24 06:16:35;;;;;;;6.93;2.63;;;;;;;12.93;77.23;100240.66;5034988;28;20041;-62
2022/05/24 06:19:01;;;;;;;9.13;2.97;;;;;;;13.03;76.82;100244.09;5034623;28;20455;-62
2022/05/24 06:21:26;;;;;;;9.80;2.88;;;;;;;13.19;76.54;100242.16;5034783;28;20030;-62
2022/05/24 06:23:52;;;;;;;9.98;3.00;;;;;;;13.21;75.68;100235.94;5034824;28;20021;-62
2022/05/24 06:26:20;;;;;;;9.27;2.80;;;;;;;13.24;75.98;100241.28;5034545;28;20037;-62
2022/05/24 06:28:45;;;;;;;12.23;2.90;;;;;;;13.34;75.45;100236.75;5034709;28;20034;-62
2022/05/24 06:31:11;;;;;;;7.53;2.58;;;;;;;13.46;75.12;100238.41;5034700;28;20029;-62
2022/05/24 06:33:36;;;;;;;6.60;2.70;;;;;;;13.65;74.33;100241.72;5034578;28;20025;-62
2022/05/24 06:36:01;;;;;;;8.55;2.88;;;;;;;13.80;73.68;100240.66;5034250;28;20116;-61
2022/05/24 06:38:27;;;;;;;9.15;2.60;;;;;;;13.98;73.40;100243.09;5034523;28;20025;-61
2022/05/24 06:40:52;;;;;;;6.22;2.63;;;;;;;14.13;72.34;100249.97;5034161;28;20356;-62
2022/05/24 06:43:17;;;;;;;13.07;2.88;;;;;;;14.25;71.45;100244.47;5034275;28;20087;-61
2022/05/24 06:45:43;;;;;;;9.70;2.70;;;;;;;14.38;71.69;100250.50;5034224;28;20459;-62
2022/05/24 06:48:12;;;;;;;8.00;2.78;;;;;;;14.47;71.05;100253.94;5034397;28;20034;-61
2022/05/24 06:50:40;;;;;;;10.70;2.58;;;;;;;14.52;70.12;100262.75;5034275;28;20056;-61
2022/05/24 06:53:06;;;;;;;5.65;2.50;;;;;;;14.55;70.04;100275.09;5033849;28;20033;-61
2022/05/24 06:55:31;;;;;;;5.55;2.28;;;;;;;14.60;68.97;100269.72;5034101;28;20496;-62
2022/05/24 06:57:57;;;;;;;8.48;2.60;;;;;;;14.74;69.22;100283.69;5033914;28;20029;-61
2022/05/24 07:03:10;;;;;;;6.90;2.50;;;;;;;14.97;68.46;100285.97;5034221;28;20049;-62
2022/05/24 07:05:36;;;;;;;6.80;2.05;;;;;;;14.98;67.51;100290.38;5033911;28;20489;-61
2022/05/24 07:08:02;;;;;;;11.48;2.33;;;;;;;14.88;67.04;100287.00;5034001;28;20017;-61
2022/05/24 07:10:30;;;;;;;9.38;2.40;;;;;;;14.92;67.43;100294.03;5034141;28;20029;-61
2022/05/24 07:13:14;;;;;;;7.10;2.40;;;;;;;14.87;68.05;100292.38;5033818;28;20033;-62
2022/05/24 07:15:40;;;;;;;7.47;2.20;;;;;;;14.96;66.56;100308.19;5033777;28;20036;-61
2022/05/24 07:18:05;;;;;;;8.05;2.28;;;;;;;15.18;67.26;100306.91;5033769;28;20037;-61
2022/05/24 07:20:33;;;;;;;8.60;2.28;;;;;;;15.40;66.53;100320.72;5033703;28;20021;-62
2022/05/24 07:23:17;;;;;;;9.73;2.35;;;;;;;15.44;66.91;100309.13;5033495;28;20025;-62
2022/05/24 07:25:44;;;;;;;7.80;2.60;;;;;;;15.38;65.68;100308.38;5033548;28;20036;-62
2022/05/24 07:28:11;;;;;;;9.35;2.40;;;;;;;15.25;64.08;100319.22;5033350;28;20542;-61
2022/05/24 07:30:37;;;;;;;5.55;2.30;;;;;;;15.12;64.81;100320.34;5033641;28;20119;-62
2022/05/24 07:33:03;;;;;;;9.00;2.47;;;;;;;15.06;64.76;100317.75;5033305;28;20069;-61
2022/05/24 07:35:28;;;;;;;6.38;2.13;;;;;;;14.96;65.31;100314.38;5033503;28;20036;-62
2022/05/24 07:37:54;;;;;;;6.72;2.47;;;;;;;14.88;64.70;100312.72;5033080;28;20371;-62
2022/05/24 07:46:02;;;;;;;5.57;2.70;;;;;;;14.85;64.77;100323.41;4972392;28;20037;-61
2022/05/24 07:48:29;;;;;;;6.75;2.80;;;;;;;14.87;64.18;100325.16;4972095;28;20110;-61
2022/05/24 07:50:54;;;;;;;4.32;2.22;;;;;;;15.15;65.02;100322.06;4956081;28;20133;-61
2022/05/24 07:53:20;;;;;;;5.00;2.30;;;;;;;15.21;63.73;100320.19;4972345;28;20438;-61
2022/05/24 07:55:46;;;;;;;9.75;2.60;;;;;;;15.32;63.62;100321.78;4971867;28;20046;-62
2022/05/24 07:58:12;;;;;;;4.28;2.17;;;;;;;15.36;63.98;100323.47;4972100;28;20051;-62
2022/05/24 08:00:38;;;;;;;6.60;2.20;;;;;;;15.34;62.66;100335.94;4971940;28;20472;-61
2022/05/24 08:03:06;;;;;;;5.80;2.20;;;;;;;15.29;62.95;100325.38;4972174;28;20031;-61
2022/05/24 08:05:33;;;;;;;7.53;2.30;;;;;;;15.26;63.51;100333.41;4971159;28;20031;-62
2022/05/24 08:08:00;;;;;;;6.53;2.50;;;;;;;15.30;63.61;100329.78;4972199;28;20042;-61
2022/05/24 08:10:27;;;;;;;6.90;2.53;;;;;;;15.37;63.81;100341.19;4971995;28;20045;-61
2022/05/24 08:12:52;;;;;;;7.07;2.42;;;;;;;15.43;62.96;100344.66;4972067;28;20404;-61
2022/05/24 08:15:18;;;;;;;6.38;2.83;;;;;;;15.50;62.64;100338.31;4971919;28;20109;-61
2022/05/24 08:17:43;;;;;;;6.78;2.70;;;;;;;15.61;63.30;100348.78;4971848;28;20031;-61
2022/05/24 08:20:10;;;;;;;8.50;2.80;;;;;;;15.58;62.88;100348.81;5015849;28;20442;-61
2022/05/24 08:22:37;;;;;;;6.45;2.65;;;;;;;15.60;63.62;100355.00;5032865;28;20047;-62
2022/05/24 08:25:04;;;;;;;6.95;2.60;;;;;;;15.68;62.79;100345.13;5032713;28;20117;-61
2022/05/24 08:27:30;;;;;;;7.70;2.95;;;;;;;15.74;61.47;100354.78;5032634;28;20053;-61
2022/05/24 08:29:57;;;;;;;6.72;3.00;;;;;;;15.84;62.15;100355.50;5032724;28;20079;-61
2022/05/24 08:32:22;;;;;;;6.35;3.35;;;;;;;16.12;62.31;100361.19;5014645;28;20129;-61
2022/05/24 08:34:48;;;;;;;7.25;3.60;;;;;;;16.35;59.44;100372.25;5032672;28;20049;-61
2022/05/24 08:37:14;;;;;;;6.60;3.38;;;;;;;16.43;60.03;100370.31;5032657;28;20117;-61
2022/05/24 08:39:42;;;;;;;4.88;3.50;;;;;;;16.26;60.30;100373.31;5032750;28;20065;-61
2022/05/24 08:42:07;;;;;;;7.50;3.65;;;;;;;16.13;60.09;100373.59;5032541;28;20088;-62
2022/05/24 08:50:25;;;;;;;6.03;3.03;;;;;;;15.66;61.40;100394.88;5032878;28;20116;-61
2022/05/24 08:52:57;;;;;;;5.72;3.15;;;;;;;15.53;62.10;100393.28;5032497;28;20057;-61
2022/05/24 08:55:23;;;;;;;6.72;2.72;;;;;;;15.47;62.20;100396.94;5032460;28;20049;-63
2022/05/24 08:58:14;;;;;;;7.68;3.10;;;;;;;15.56;62.42;100401.25;5032229;28;20524;-61
2022/05/24 09:00:41;;;;;;;10.98;2.70;;;;;;;15.46;62.20;100405.84;5032407;28;20033;-61
2022/05/24 09:03:08;;;;;;;4.13;2.50;;;;;;;15.49;61.61;100410.22;5032460;28;20033;-62
2022/05/24 09:05:38;;;;;;;10.27;2.60;;;;;;;15.47;61.33;100406.72;5032521;28;20043;-61
2022/05/24 09:08:04;;;;;;;5.30;2.40;;;;;;;15.45;61.85;100417.38;5032321;28;20034;-61
2022/05/24 09:10:46;;;;;;;4.63;2.10;;;;;;;15.44;61.33;100430.72;5032207;28;20151;-61
2022/05/24 09:13:20;;;;;;;3.75;2.17;;;;;;;15.35;61.93;100430.88;5032451;28;20084;-61
2022/05/24 09:16:11;;;;;;;5.28;2.20;;;;;;;15.24;61.29;100428.38;5032314;28;20087;-61
2022/05/24 09:19:04;;;;;;;4.95;2.30;;;;;;;15.16;61.55;100441.81;5035927;28;20459;-62
2022/05/24 09:21:31;;;;;;;4.68;2.40;;;;;;;15.13;61.76;100440.97;5035788;28;20033;-61
2022/05/24 09:24:24;;;;;;;4.68;2.47;;;;;;;15.10;62.49;100446.31;5036010;28;20053;-61
2022/05/24 09:27:18;;;;;;;4.97;2.42;;;;;;;15.27;63.03;100442.50;5035722;28;20030;-62
2022/05/24 09:30:05;;;;;;;5.43;2.38;;;;;;;15.49;62.42;100444.84;5036108;28;20099;-61
2022/05/24 09:32:46;;;;;;;5.32;3.20;;;;;;;15.62;61.27;100450.84;5035612;28;20053;-62
2022/05/24 09:35:23;;;;;;;8.18;3.55;;;;;;;15.58;60.63;100447.34;5035716;28;20168;-62
2022/05/24 09:38:03;;;;;;;5.45;3.70;;;;;;;15.58;61.22;100452.69;5035707;28;20076;-62
2022/05/24 09:40:45;;;;;;;8.18;3.80;;;;;;;15.51;60.81;100467.03;5035762;28;20033;-61
2022/05/24 09:43:33;;;;;;;10.90;3.90;;;;;;;15.40;60.75;100471.63;5035350;28;20029;-61
2022/05/24 09:46:04;;;;;;;5.47;3.63;;;;;;;15.29;60.55;100469.13;5035306;28;20057;-62
2022/05/24 09:48:33;;;;;;;6.70;3.50;;;;;;;15.34;60.31;100477.03;5035450;28;20026;-61
2022/05/24 09:50:59;;;;;;;8.15;3.95;;;;;;;15.44;60.45;100479.53;5035289;28;20493;-61
2022/05/24 09:53:30;;;;;;;7.03;3.88;;;;;;;15.84;60.41;100467.38;5035320;28;20104;-61
2022/05/24 09:56:06;;;;;;;6.32;3.90;;;;;;;16.31;59.23;100487.00;5035301;28;20036;-61
2022/05/24 09:58:35;;;;;;;6.18;4.20;;;;;;;16.82;58.97;100471.78;5034696;28;20100;-62
2022/05/24 10:01:07;;;;;;;5.25;4.40;;;;;;;17.31;57.64;100472.53;5035215;28;20029;-61
2022/05/24 10:03:38;;;;;;;6.47;4.05;;;;;;;17.67;55.17;100476.09;5035014;28;20028;-61
2022/05/24 10:06:10;;;;;;;7.88;4.18;;;;;;;17.87;54.78;100464.97;5035737;28;20061;-61
2022/05/24 10:08:41;;;;;;;8.03;4.63;;;;;;;18.09;54.57;100474.19;5035233;28;20040;-62
2022/05/24 10:11:26;;;;;;;5.93;4.28;;;;;;;18.31;52.38;100465.59;5034884;28;20029;-62
2022/05/24 10:13:58;;;;;;;6.72;4.03;;;;;;;18.35;51.57;100499.38;5017286;28;20033;-61
2022/05/24 10:16:40;;;;;;;5.90;4.38;;;;;;;18.19;52.56;100485.50;5034720;28;20021;-62
2022/05/24 10:19:32;;;;;;;6.18;4.65;;;;;;;18.07;53.48;100484.03;5034908;28;20048;-62
2022/05/24 10:22:30;;;;;;;6.00;4.82;;;;;;;18.06;53.17;100492.97;5034772;28;20061;-62
2022/05/24 10:25:19;;;;;;;6.65;4.88;;;;;;;17.97;52.43;100490.53;5034003;28;20069;-62
2022/05/24 10:28:02;;;;;;;6.57;4.60;;;;;;;17.85;51.64;100494.38;5016272;28;20331;-62
2022/05/24 10:30:37;;;;;;;6.55;4.20;;;;;;;17.73;52.08;100492.00;5034464;28;20469;-62
2022/05/24 10:39:14;;;;;;;7.45;4.40;;;;;;;17.81;52.90;100499.84;5034827;28;20590;-62
2022/05/24 10:42:09;;;;;;;6.25;4.70;;;;;;;17.81;53.24;100511.41;5034249;28;20504;-62
2022/05/24 10:44:45;;;;;;;8.27;4.70;;;;;;;18.04;53.13;100518.00;5034290;28;20055;-62
2022/05/24 10:47:34;;;;;;;8.07;5.32;;;;;;;18.17;52.79;100520.31;5034238;28;20038;-62
2022/05/24 10:50:29;;;;;;;6.25;4.50;;;;;;;18.24;51.97;100518.34;5034424;28;20057;-62
2022/05/24 10:53:11;;;;;;;6.43;4.35;;;;;;;17.99;51.60;100520.81;4954082;29;20079;-62
2022/05/24 10:55:50;;;;;;;9.30;3.50;;;;;;;17.88;54.16;100521.03;4954119;29;20125;-61
2022/05/24 10:58:18;;;;;;;7.72;3.35;;;;;;;18.08;54.29;100517.00;4953864;29;20521;-62
2022/05/24 11:01:08;;;;;;;5.30;2.80;;;;;;;18.57;53.96;100521.06;4953984;29;20361;-62
2022/05/24 11:03:49;;;;;;;7.68;3.00;;;;;;;18.91;52.78;100511.19;4953146;29;20047;-62
2022/05/24 11:06:38;;;;;;;5.93;3.20;;;;;;;19.12;52.58;100516.84;4953889;29;20051;-62
2022/05/24 11:09:10;;;;;;;3.88;2.67;;;;;;;19.34;51.27;100512.59;4953864;29;20436;-62
2022/05/24 11:12:01;;;;;;;7.17;2.90;;;;;;;19.44;51.18;100513.16;4953780;29;20061;-62
2022/05/24 11:14:42;;;;;;;4.75;2.95;;;;;;;19.45;51.51;100514.94;4953192;29;20046;-62
2022/05/24 11:17:12;;;;;;;5.72;3.00;;;;;;;19.75;49.89;100513.13;4953533;29;20104;-61
2022/05/24 11:19:45;;;;;;;6.20;3.00;;;;;;;20.02;49.76;100503.28;4953435;29;20058;-62
2022/05/24 11:22:21;;;;;;;3.97;2.90;;;;;;;20.33;48.70;100505.78;4953335;29;20493;-62
2022/05/24 11:24:58;;;;;;;4.95;3.50;;;;;;;20.59;47.53;100521.00;4953326;29;20062;-62
2022/05/24 11:27:44;;;;;;;4.82;3.90;;;;;;;20.82;48.16;100513.94;4953455;29;20066;-62
2022/05/24 11:30:09;;;;;;;4.10;3.25;;;;;;;20.95;46.23;100513.44;5005089;28;20037;-62
2022/05/24 11:33:09;;;;;;;5.38;3.35;;;;;;;21.11;44.85;100524.47;5033518;28;20036;-62
2022/05/24 11:35:38;;;;;;;4.75;3.45;;;;;;;21.01;44.42;100515.88;5011541;28;20475;-62
2022/05/24 11:38:22;;;;;;;4.63;3.40;;;;;;;21.13;46.17;100514.53;5033585;28;20029;-61
2022/05/24 11:41:01;;;;;;;9.60;3.70;;;;;;;21.10;43.42;100522.72;5033250;28;20056;-62
2022/05/24 11:43:36;;;;;;;6.13;3.17;;;;;;;21.00;43.45;100518.63;5033372;28;20440;-62
2022/05/24 11:46:29;;;;;;;3.95;3.10;;;;;;;20.91;43.87;100530.59;5033388;28;20040;-62
2022/05/24 11:48:56;;;;;;;6.78;3.33;;;;;;;20.98;44.04;100521.38;5033214;28;20021;-62
2022/05/24 11:51:29;;;;;;;5.15;3.10;;;;;;;21.29;44.25;100524.72;5035847;28;20493;-62
2022/05/24 11:53:55;;;;;;;5.88;3.35;;;;;;;21.66;42.27;100540.28;5036188;28;20025;-62
2022/05/24 11:56:24;;;;;;;4.75;3.08;;;;;;;21.98;41.69;100539.88;5039969;28;20021;-62
2022/05/24 11:58:55;;;;;;;3.88;3.25;;;;;;;22.16;39.11;100546.31;5041707;28;20410;-62
2022/05/24 12:01:23;;;;;;;7.13;3.25;;;;;;;22.18;40.89;100541.78;5034742;28;20100;-62
2022/05/24 12:10:10;;;;;;;4.88;2.97;;;;;;;22.41;40.49;100546.16;5033261;28;20084;-61
2022/05/24 12:12:55;;;;;;;7.47;3.28;;;;;;;22.11;41.75;100547.44;5032859;28;20021;-61
2022/05/24 12:15:34;;;;;;;5.13;3.40;;;;;;;21.63;41.79;100551.19;5032856;28;20112;-62
2022/05/24 12:17:59;;;;;;;5.88;3.38;;;;;;;21.34;41.12;100555.88;5032916;28;20029;-61
2022/05/24 12:20:34;;;;;;;6.50;3.70;;;;;;;20.98;43.39;100563.47;5032708;28;20040;-62
2022/05/24 12:23:09;;;;;;;5.43;3.10;;;;;;;20.65;43.42;100571.81;5032722;28;20029;-62
2022/05/24 12:25:53;;;;;;;4.55;2.50;;;;;;;20.16;43.46;100585.97;5032587;28;20033;-62